sensor_id;sensor_type;location;lat;lon;timestamp;temperature;humidity
27540;DHT22;15906;52.046;4.724;2023-02-28T00:01:09;3.00;99.90
27540;DHT22;15906;52.046;4.724;2023-02-28T00:03:34;3.00;99.90
27540;DHT22;15906;52.046;4.724;2023-02-28T00:06:02;3.10;99.90
27540;DHT22;15906;52.046;4.724;2023-02-28T00:08:28;3.10;99.90
27540;DHT22;15906;52.046;4.724;2023-02-28T00:10:54;3.10;99.90
27540;DHT22;15906;52.046;4.724;2023-02-28T00:13:19;3.10;99.90
27540;DHT22;15906;52.046;4.724;2023-02-28T00:15:45;3.10;99.90
27540;DHT22;15906;52.046;4.724;2023-02-28T00:18:11;3.10;99.90
27540;DHT22;15906;52.046;4.724;2023-02-28T00:20:37;3.20;99.90
27540;DHT22;15906;52.046;4.724;2023-02-28T00:23:03;3.20;99.90
27540;DHT22;15906;52.046;4.724;2023-02-28T00:25:28;3.20;99.90
27540;DHT22;15906;52.046;4.724;2023-02-28T00:27:54;3.30;99.90
27540;DHT22;15906;52.046;4.724;2023-02-28T00:30:21;3.40;99.90
27540;DHT22;15906;52.046;4.724;2023-02-28T00:32:48;3.40;99.90
27540;DHT22;15906;52.046;4.724;2023-02-28T00:35:14;3.40;99.90
27540;DHT22;15906;52.046;4.724;2023-02-28T00:37:39;3.40;99.90
27540;DHT22;15906;52.046;4.724;2023-02-28T00:40:06;3.30;99.90
27540;DHT22;15906;52.046;4.724;2023-02-28T00:42:33;3.40;99.90
27540;DHT22;15906;52.046;4.724;2023-02-28T00:44:59;3.40;99.90
27540;DHT22;15906;52.046;4.724;2023-02-28T00:47:25;3.50;99.90
27540;DHT22;15906;52.046;4.724;2023-02-28T00:49:50;3.40;99.90
27540;DHT22;15906;52.046;4.724;2023-02-28T00:52:16;3.50;99.90
27540;DHT22;15906;52.046;4.724;2023-02-28T00:54:41;3.60;99.90
27540;DHT22;15906;52.046;4.724;2023-02-28T00:57:07;3.60;99.90
27540;DHT22;15906;52.046;4.724;2023-02-28T00:59:32;3.60;99.90
27540;DHT22;15906;52.046;4.724;2023-02-28T01:01:58;3.60;99.90
27540;DHT22;15906;52.046;4.724;2023-02-28T01:04:24;3.60;99.90
27540;DHT22;15906;52.046;4.724;2023-02-28T01:06:49;3.60;99.90
27540;DHT22;15906;52.046;4.724;2023-02-28T01:09:15;3.60;99.90
27540;DHT22;15906;52.046;4.724;2023-02-28T01:11:41;3.60;99.90
27540;DHT22;15906;52.046;4.724;2023-02-28T01:14:12;3.60;99.90
27540;DHT22;15906;52.046;4.724;2023-02-28T01:16:38;3.60;99.90
27540;DHT22;15906;52.046;4.724;2023-02-28T01:19:04;3.60;99.90
27540;DHT22;15906;52.046;4.724;2023-02-28T01:21:29;3.60;99.90
27540;DHT22;15906;52.046;4.724;2023-02-28T01:23:57;3.60;99.90
27540;DHT22;15906;52.046;4.724;2023-02-28T01:26:23;3.60;99.90
27540;DHT22;15906;52.046;4.724;2023-02-28T01:28:50;3.60;99.90
27540;DHT22;15906;52.046;4.724;2023-02-28T01:31:16;3.60;99.90
27540;DHT22;15906;52.046;4.724;2023-02-28T01:33:43;3.70;99.90
27540;DHT22;15906;52.046;4.724;2023-02-28T01:36:12;3.70;99.90
27540;DHT22;15906;52.046;4.724;2023-02-28T01:38:38;3.70;99.90
27540;DHT22;15906;52.046;4.724;2023-02-28T01:41:05;3.70;99.90
27540;DHT22;15906;52.046;4.724;2023-02-28T01:46:10;3.70;99.90
27540;DHT22;15906;52.046;4.724;2023-02-28T01:48:46;3.70;99.90
27540;DHT22;15906;52.046;4.724;2023-02-28T01:51:17;3.70;99.90
27540;DHT22;15906;52.046;4.724;2023-02-28T01:53:47;3.70;99.90
27540;DHT22;15906;52.046;4.724;2023-02-28T01:56:19;3.80;99.90
27540;DHT22;15906;52.046;4.724;2023-02-28T01:58:47;3.70;99.90
27540;DHT22;15906;52.046;4.724;2023-02-28T02:01:13;3.70;99.90
27540;DHT22;15906;52.046;4.724;2023-02-28T02:04:00;3.70;99.90
27540;DHT22;15906;52.046;4.724;2023-02-28T02:06:43;3.70;99.90
27540;DHT22;15906;52.046;4.724;2023-02-28T02:09:10;3.70;99.90
27540;DHT22;15906;52.046;4.724;2023-02-28T02:11:36;3.70;99.90
27540;DHT22;15906;52.046;4.724;2023-02-28T02:25:19;3.70;99.90
27540;DHT22;15906;52.046;4.724;2023-02-28T02:39:30;3.80;99.90
27540;DHT22;15906;52.046;4.724;2023-02-28T02:41:59;3.90;99.90
27540;DHT22;15906;52.046;4.724;2023-02-28T02:44:41;3.80;99.90
27540;DHT22;15906;52.046;4.724;2023-02-28T02:47:15;3.90;99.90
27540;DHT22;15906;52.046;4.724;2023-02-28T02:49:52;3.80;99.90
27540;DHT22;15906;52.046;4.724;2023-02-28T02:52:23;3.80;99.90
27540;DHT22;15906;52.046;4.724;2023-02-28T02:54:52;3.80;99.90
27540;DHT22;15906;52.046;4.724;2023-02-28T02:57:38;3.90;99.90
27540;DHT22;15906;52.046;4.724;2023-02-28T03:00:06;3.90;99.90
27540;DHT22;15906;52.046;4.724;2023-02-28T03:02:35;4.00;99.90
27540;DHT22;15906;52.046;4.724;2023-02-28T03:05:12;4.00;99.90
27540;DHT22;15906;52.046;4.724;2023-02-28T03:07:39;3.90;99.90
27540;DHT22;15906;52.046;4.724;2023-02-28T03:10:37;3.90;99.90
27540;DHT22;15906;52.046;4.724;2023-02-28T03:13:19;4.00;99.90
27540;DHT22;15906;52.046;4.724;2023-02-28T03:21:41;4.00;99.90
27540;DHT22;15906;52.046;4.724;2023-02-28T03:24:12;3.90;99.90
27540;DHT22;15906;52.046;4.724;2023-02-28T03:26:43;3.90;99.90
27540;DHT22;15906;52.046;4.724;2023-02-28T03:29:14;4.00;99.90
27540;DHT22;15906;52.046;4.724;2023-02-28T03:31:54;4.00;99.90
27540;DHT22;15906;52.046;4.724;2023-02-28T03:34:33;4.00;99.90
27540;DHT22;15906;52.046;4.724;2023-02-28T03:37:04;4.10;99.90
27540;DHT22;15906;52.046;4.724;2023-02-28T03:39:43;4.00;99.90
27540;DHT22;15906;52.046;4.724;2023-02-28T03:42:12;4.00;99.90
27540;DHT22;15906;52.046;4.724;2023-02-28T03:44:47;3.90;99.90
27540;DHT22;15906;52.046;4.724;2023-02-28T03:50:04;4.10;99.90
27540;DHT22;15906;52.046;4.724;2023-02-28T03:52:34;4.10;99.90
27540;DHT22;15906;52.046;4.724;2023-02-28T03:55:09;4.00;99.90
27540;DHT22;15906;52.046;4.724;2023-02-28T03:57:56;4.00;99.90
27540;DHT22;15906;52.046;4.724;2023-02-28T04:00:40;3.90;99.90
27540;DHT22;15906;52.046;4.724;2023-02-28T04:03:06;3.80;99.90
27540;DHT22;15906;52.046;4.724;2023-02-28T04:05:32;3.80;99.90
27540;DHT22;15906;52.046;4.724;2023-02-28T04:08:06;3.80;99.90
27540;DHT22;15906;52.046;4.724;2023-02-28T04:10:32;3.90;99.90
27540;DHT22;15906;52.046;4.724;2023-02-28T04:12:58;3.80;99.90
27540;DHT22;15906;52.046;4.724;2023-02-28T04:15:23;3.80;99.90
27540;DHT22;15906;52.046;4.724;2023-02-28T04:17:50;3.80;99.90
27540;DHT22;15906;52.046;4.724;2023-02-28T04:20:15;3.90;99.90
27540;DHT22;15906;52.046;4.724;2023-02-28T04:22:41;3.90;99.90
27540;DHT22;15906;52.046;4.724;2023-02-28T04:25:07;3.90;99.90
27540;DHT22;15906;52.046;4.724;2023-02-28T04:27:33;3.90;99.90
27540;DHT22;15906;52.046;4.724;2023-02-28T04:29:59;3.90;99.90
27540;DHT22;15906;52.046;4.724;2023-02-28T04:32:24;3.80;99.90
27540;DHT22;15906;52.046;4.724;2023-02-28T04:34:50;3.80;99.90
27540;DHT22;15906;52.046;4.724;2023-02-28T04:37:15;3.90;99.90
27540;DHT22;15906;52.046;4.724;2023-02-28T04:39:41;4.00;99.90
27540;DHT22;15906;52.046;4.724;2023-02-28T04:42:07;3.90;99.90
27540;DHT22;15906;52.046;4.724;2023-02-28T04:44:33;3.80;99.90
27540;DHT22;15906;52.046;4.724;2023-02-28T04:46:58;3.80;99.90
27540;DHT22;15906;52.046;4.724;2023-02-28T04:49:24;3.80;99.90
27540;DHT22;15906;52.046;4.724;2023-02-28T04:51:49;3.80;99.90
27540;DHT22;15906;52.046;4.724;2023-02-28T04:54:15;3.90;99.90
27540;DHT22;15906;52.046;4.724;2023-02-28T04:56:41;3.90;99.90
27540;DHT22;15906;52.046;4.724;2023-02-28T04:59:07;3.90;99.90
27540;DHT22;15906;52.046;4.724;2023-02-28T05:01:34;3.90;99.90
27540;DHT22;15906;52.046;4.724;2023-02-28T05:04:01;3.90;99.90
27540;DHT22;15906;52.046;4.724;2023-02-28T05:06:30;3.90;99.90
27540;DHT22;15906;52.046;4.724;2023-02-28T05:08:56;3.90;99.90
27540;DHT22;15906;52.046;4.724;2023-02-28T05:11:28;4.00;99.90
27540;DHT22;15906;52.046;4.724;2023-02-28T05:14:01;4.10;99.90
27540;DHT22;15906;52.046;4.724;2023-02-28T05:16:27;4.10;99.90
27540;DHT22;15906;52.046;4.724;2023-02-28T05:18:52;4.10;99.90
27540;DHT22;15906;52.046;4.724;2023-02-28T05:21:26;4.00;99.90
27540;DHT22;15906;52.046;4.724;2023-02-28T05:23:53;4.00;99.90
27540;DHT22;15906;52.046;4.724;2023-02-28T05:26:19;3.90;99.90
27540;DHT22;15906;52.046;4.724;2023-02-28T05:28:45;4.00;99.90
27540;DHT22;15906;52.046;4.724;2023-02-28T05:31:11;4.00;99.90
27540;DHT22;15906;52.046;4.724;2023-02-28T05:33:36;3.90;99.90
27540;DHT22;15906;52.046;4.724;2023-02-28T05:36:03;3.80;99.90
27540;DHT22;15906;52.046;4.724;2023-02-28T05:38:28;3.70;99.90
27540;DHT22;15906;52.046;4.724;2023-02-28T05:40:54;3.70;99.90
27540;DHT22;15906;52.046;4.724;2023-02-28T05:43:19;3.60;99.90
27540;DHT22;15906;52.046;4.724;2023-02-28T05:45:45;3.60;99.90
27540;DHT22;15906;52.046;4.724;2023-02-28T05:48:11;3.60;99.90
27540;DHT22;15906;52.046;4.724;2023-02-28T05:50:37;3.60;99.90
27540;DHT22;15906;52.046;4.724;2023-02-28T05:53:02;3.60;99.90
27540;DHT22;15906;52.046;4.724;2023-02-28T05:55:28;3.60;99.90
27540;DHT22;15906;52.046;4.724;2023-02-28T05:57:54;3.50;99.90
27540;DHT22;15906;52.046;4.724;2023-02-28T06:00:20;3.50;99.90
27540;DHT22;15906;52.046;4.724;2023-02-28T06:02:45;3.40;99.90
27540;DHT22;15906;52.046;4.724;2023-02-28T06:05:16;3.40;99.90
27540;DHT22;15906;52.046;4.724;2023-02-28T06:07:43;3.30;99.90
27540;DHT22;15906;52.046;4.724;2023-02-28T06:10:10;3.30;99.90
27540;DHT22;15906;52.046;4.724;2023-02-28T06:12:37;3.10;99.90
27540;DHT22;15906;52.046;4.724;2023-02-28T06:15:03;3.00;99.90
27540;DHT22;15906;52.046;4.724;2023-02-28T06:17:28;3.00;99.90
27540;DHT22;15906;52.046;4.724;2023-02-28T06:19:54;3.00;99.90
27540;DHT22;15906;52.046;4.724;2023-02-28T06:22:20;2.90;99.90
27540;DHT22;15906;52.046;4.724;2023-02-28T06:24:45;2.80;99.90
27540;DHT22;15906;52.046;4.724;2023-02-28T06:27:11;2.90;99.90
27540;DHT22;15906;52.046;4.724;2023-02-28T06:29:36;2.80;99.90
27540;DHT22;15906;52.046;4.724;2023-02-28T06:32:05;2.70;99.90
27540;DHT22;15906;52.046;4.724;2023-02-28T06:34:31;2.70;99.90
27540;DHT22;15906;52.046;4.724;2023-02-28T06:36:59;2.70;99.90
27540;DHT22;15906;52.046;4.724;2023-02-28T06:39:30;2.60;99.90
27540;DHT22;15906;52.046;4.724;2023-02-28T06:41:56;2.50;99.90
27540;DHT22;15906;52.046;4.724;2023-02-28T06:44:23;2.50;99.90
27540;DHT22;15906;52.046;4.724;2023-02-28T06:46:48;2.40;99.90
27540;DHT22;15906;52.046;4.724;2023-02-28T06:49:15;2.40;99.90
27540;DHT22;15906;52.046;4.724;2023-02-28T06:51:42;2.40;99.90
27540;DHT22;15906;52.046;4.724;2023-02-28T06:54:10;2.30;99.90
27540;DHT22;15906;52.046;4.724;2023-02-28T06:56:36;2.20;99.90
27540;DHT22;15906;52.046;4.724;2023-02-28T06:59:02;2.10;99.90
27540;DHT22;15906;52.046;4.724;2023-02-28T07:01:28;2.10;99.90
27540;DHT22;15906;52.046;4.724;2023-02-28T07:03:54;2.10;99.90
27540;DHT22;15906;52.046;4.724;2023-02-28T07:06:21;2.10;99.90
27540;DHT22;15906;52.046;4.724;2023-02-28T07:08:51;2.10;99.90
27540;DHT22;15906;52.046;4.724;2023-02-28T07:11:18;2.10;99.90
27540;DHT22;15906;52.046;4.724;2023-02-28T07:13:44;2.00;99.90
27540;DHT22;15906;52.046;4.724;2023-02-28T07:16:10;2.10;99.90
27540;DHT22;15906;52.046;4.724;2023-02-28T07:18:37;2.10;99.90
27540;DHT22;15906;52.046;4.724;2023-02-28T07:21:04;2.00;99.90
27540;DHT22;15906;52.046;4.724;2023-02-28T07:23:30;2.00;99.90
27540;DHT22;15906;52.046;4.724;2023-02-28T07:25:55;1.90;99.90
27540;DHT22;15906;52.046;4.724;2023-02-28T07:28:21;1.90;99.90
27540;DHT22;15906;52.046;4.724;2023-02-28T07:30:46;1.90;99.90
27540;DHT22;15906;52.046;4.724;2023-02-28T07:33:13;2.00;99.90
27540;DHT22;15906;52.046;4.724;2023-02-28T07:35:39;2.00;99.90
27540;DHT22;15906;52.046;4.724;2023-02-28T07:38:04;2.00;99.90
27540;DHT22;15906;52.046;4.724;2023-02-28T07:40:30;2.00;99.90
27540;DHT22;15906;52.046;4.724;2023-02-28T07:42:56;2.00;99.90
27540;DHT22;15906;52.046;4.724;2023-02-28T07:45:23;2.00;99.90
27540;DHT22;15906;52.046;4.724;2023-02-28T07:47:49;2.00;99.90
27540;DHT22;15906;52.046;4.724;2023-02-28T07:50:15;2.10;99.90
27540;DHT22;15906;52.046;4.724;2023-02-28T07:52:41;2.00;99.90
27540;DHT22;15906;52.046;4.724;2023-02-28T07:55:09;2.00;99.90
27540;DHT22;15906;52.046;4.724;2023-02-28T07:57:35;1.90;99.90
27540;DHT22;15906;52.046;4.724;2023-02-28T08:00:01;2.00;99.90
27540;DHT22;15906;52.046;4.724;2023-02-28T08:02:26;1.90;99.90
27540;DHT22;15906;52.046;4.724;2023-02-28T08:04:52;2.00;99.90
27540;DHT22;15906;52.046;4.724;2023-02-28T08:07:18;2.00;99.90
27540;DHT22;15906;52.046;4.724;2023-02-28T08:09:44;2.10;99.90
27540;DHT22;15906;52.046;4.724;2023-02-28T08:12:11;2.20;99.90
27540;DHT22;15906;52.046;4.724;2023-02-28T08:14:36;2.10;99.90
27540;DHT22;15906;52.046;4.724;2023-02-28T08:17:03;2.10;99.90
27540;DHT22;15906;52.046;4.724;2023-02-28T08:19:29;2.10;99.90
27540;DHT22;15906;52.046;4.724;2023-02-28T08:21:55;2.30;99.90
27540;DHT22;15906;52.046;4.724;2023-02-28T08:24:20;2.30;99.90
27540;DHT22;15906;52.046;4.724;2023-02-28T08:26:46;2.20;99.90
27540;DHT22;15906;52.046;4.724;2023-02-28T08:29:11;2.30;99.90
27540;DHT22;15906;52.046;4.724;2023-02-28T08:31:37;2.50;99.90
27540;DHT22;15906;52.046;4.724;2023-02-28T08:34:07;2.40;99.90
27540;DHT22;15906;52.046;4.724;2023-02-28T08:36:33;2.50;99.90
27540;DHT22;15906;52.046;4.724;2023-02-28T08:38:59;2.50;99.90
27540;DHT22;15906;52.046;4.724;2023-02-28T08:41:25;2.50;99.90
27540;DHT22;15906;52.046;4.724;2023-02-28T08:43:52;2.60;99.90
27540;DHT22;15906;52.046;4.724;2023-02-28T08:46:18;2.70;99.90
27540;DHT22;15906;52.046;4.724;2023-02-28T08:48:44;2.60;99.90
27540;DHT22;15906;52.046;4.724;2023-02-28T08:51:16;2.60;99.90
27540;DHT22;15906;52.046;4.724;2023-02-28T08:53:44;2.60;99.90
27540;DHT22;15906;52.046;4.724;2023-02-28T08:56:12;2.70;99.90
27540;DHT22;15906;52.046;4.724;2023-02-28T08:58:39;2.70;99.90
27540;DHT22;15906;52.046;4.724;2023-02-28T09:01:32;2.70;99.90
27540;DHT22;15906;52.046;4.724;2023-02-28T09:03:57;2.70;99.90
27540;DHT22;15906;52.046;4.724;2023-02-28T09:06:25;2.70;99.90
27540;DHT22;15906;52.046;4.724;2023-02-28T09:08:51;2.70;99.90
27540;DHT22;15906;52.046;4.724;2023-02-28T09:11:18;2.70;99.90
27540;DHT22;15906;52.046;4.724;2023-02-28T09:13:45;2.70;99.90
27540;DHT22;15906;52.046;4.724;2023-02-28T09:16:12;2.80;99.90
27540;DHT22;15906;52.046;4.724;2023-02-28T09:18:39;2.90;99.90
27540;DHT22;15906;52.046;4.724;2023-02-28T09:21:06;2.90;99.90
27540;DHT22;15906;52.046;4.724;2023-02-28T09:23:32;3.00;99.90
27540;DHT22;15906;52.046;4.724;2023-02-28T09:25:58;3.00;99.90
27540;DHT22;15906;52.046;4.724;2023-02-28T09:28:23;3.10;99.90
27540;DHT22;15906;52.046;4.724;2023-02-28T09:30:51;3.20;99.90
27540;DHT22;15906;52.046;4.724;2023-02-28T09:33:18;3.00;99.90
27540;DHT22;15906;52.046;4.724;2023-02-28T09:35:46;2.90;99.90
27540;DHT22;15906;52.046;4.724;2023-02-28T09:38:12;2.90;99.90
27540;DHT22;15906;52.046;4.724;2023-02-28T09:43:22;2.90;99.90
27540;DHT22;15906;52.046;4.724;2023-02-28T09:45:54;3.00;99.90
27540;DHT22;15906;52.046;4.724;2023-02-28T09:48:28;3.20;99.90
27540;DHT22;15906;52.046;4.724;2023-02-28T09:51:02;3.20;99.90
27540;DHT22;15906;52.046;4.724;2023-02-28T09:53:35;3.10;99.90
27540;DHT22;15906;52.046;4.724;2023-02-28T09:58:44;3.20;99.90
27540;DHT22;15906;52.046;4.724;2023-02-28T10:06:51;3.20;99.90
27540;DHT22;15906;52.046;4.724;2023-02-28T10:09:30;3.10;99.90
27540;DHT22;15906;52.046;4.724;2023-02-28T10:12:02;3.20;99.90
27540;DHT22;15906;52.046;4.724;2023-02-28T10:14:30;3.20;99.90
27540;DHT22;15906;52.046;4.724;2023-02-28T10:17:03;3.20;99.90
27540;DHT22;15906;52.046;4.724;2023-02-28T10:22:21;3.30;99.90
27540;DHT22;15906;52.046;4.724;2023-02-28T10:24:52;3.20;99.90
27540;DHT22;15906;52.046;4.724;2023-02-28T10:27:23;3.30;99.90
27540;DHT22;15906;52.046;4.724;2023-02-28T10:29:54;3.40;99.90
27540;DHT22;15906;52.046;4.724;2023-02-28T10:32:27;3.40;99.90
27540;DHT22;15906;52.046;4.724;2023-02-28T10:35:00;3.50;99.90
27540;DHT22;15906;52.046;4.724;2023-02-28T10:37:27;3.50;99.90
27540;DHT22;15906;52.046;4.724;2023-02-28T10:39:53;3.60;99.90
27540;DHT22;15906;52.046;4.724;2023-02-28T10:42:24;3.70;99.90
27540;DHT22;15906;52.046;4.724;2023-02-28T10:47:32;4.00;99.90
27540;DHT22;15906;52.046;4.724;2023-02-28T10:49:58;4.20;99.90
27540;DHT22;15906;52.046;4.724;2023-02-28T10:52:36;4.50;99.90
27540;DHT22;15906;52.046;4.724;2023-02-28T10:55:35;5.10;99.90
27540;DHT22;15906;52.046;4.724;2023-02-28T10:58:01;5.80;99.90
27540;DHT22;15906;52.046;4.724;2023-02-28T11:00:33;6.10;99.90
27540;DHT22;15906;52.046;4.724;2023-02-28T11:02:59;6.30;99.90
27540;DHT22;15906;52.046;4.724;2023-02-28T11:05:30;6.20;99.90
27540;DHT22;15906;52.046;4.724;2023-02-28T11:08:14;6.50;99.90
27540;DHT22;15906;52.046;4.724;2023-02-28T11:10:48;6.60;99.90
27540;DHT22;15906;52.046;4.724;2023-02-28T11:13:20;6.70;99.90
27540;DHT22;15906;52.046;4.724;2023-02-28T11:15:54;7.00;99.90
27540;DHT22;15906;52.046;4.724;2023-02-28T11:18:30;7.00;99.90
27540;DHT22;15906;52.046;4.724;2023-02-28T11:20:58;7.00;99.90
27540;DHT22;15906;52.046;4.724;2023-02-28T11:23:27;7.10;99.90
27540;DHT22;15906;52.046;4.724;2023-02-28T11:25:55;6.80;99.90
27540;DHT22;15906;52.046;4.724;2023-02-28T11:31:04;6.40;99.90
27540;DHT22;15906;52.046;4.724;2023-02-28T11:33:49;6.20;99.90
27540;DHT22;15906;52.046;4.724;2023-02-28T11:36:20;5.90;99.90
27540;DHT22;15906;52.046;4.724;2023-02-28T11:38:47;5.90;99.90
27540;DHT22;15906;52.046;4.724;2023-02-28T11:46:44;6.00;99.90
27540;DHT22;15906;52.046;4.724;2023-02-28T11:51:57;6.30;99.90
27540;DHT22;15906;52.046;4.724;2023-02-28T12:00:20;7.60;99.90
27540;DHT22;15906;52.046;4.724;2023-02-28T12:03:35;7.90;99.90
27540;DHT22;15906;52.046;4.724;2023-02-28T12:06:25;8.10;99.90
27540;DHT22;15906;52.046;4.724;2023-02-28T12:28:32;8.50;98.00
27540;DHT22;15906;52.046;4.724;2023-02-28T12:31:14;8.50;99.90
27540;DHT22;15906;52.046;4.724;2023-02-28T12:33:46;8.40;96.70
27540;DHT22;15906;52.046;4.724;2023-02-28T12:36:16;8.40;98.30
27540;DHT22;15906;52.046;4.724;2023-02-28T12:38:45;8.30;99.90
27540;DHT22;15906;52.046;4.724;2023-02-28T12:41:33;8.30;99.90
27540;DHT22;15906;52.046;4.724;2023-02-28T12:44:13;8.40;98.80
27540;DHT22;15906;52.046;4.724;2023-02-28T12:46:46;8.50;99.90
27540;DHT22;15906;52.046;4.724;2023-02-28T12:52:02;9.00;99.00
27540;DHT22;15906;52.046;4.724;2023-02-28T12:57:18;9.20;97.00
27540;DHT22;15906;52.046;4.724;2023-02-28T13:00:00;9.20;96.30
27540;DHT22;15906;52.046;4.724;2023-02-28T13:10:56;9.10;96.80
27540;DHT22;15906;52.046;4.724;2023-02-28T13:13:24;9.10;97.90
27540;DHT22;15906;52.046;4.724;2023-02-28T13:15:59;9.10;94.80
27540;DHT22;15906;52.046;4.724;2023-02-28T13:18:46;9.10;98.90
27540;DHT22;15906;52.046;4.724;2023-02-28T13:21:29;9.30;98.00
27540;DHT22;15906;52.046;4.724;2023-02-28T13:23:56;9.00;97.90
27540;DHT22;15906;52.046;4.724;2023-02-28T13:34:28;8.20;98.40
27540;DHT22;15906;52.046;4.724;2023-02-28T13:39:53;8.20;93.80
27540;DHT22;15906;52.046;4.724;2023-02-28T13:47:42;8.00;96.90
27540;DHT22;15906;52.046;4.724;2023-02-28T13:50:31;8.30;96.70
27540;DHT22;15906;52.046;4.724;2023-02-28T14:01:40;7.90;96.40
27540;DHT22;15906;52.046;4.724;2023-02-28T14:04:57;7.90;95.30
27540;DHT22;15906;52.046;4.724;2023-02-28T14:07:30;7.90;96.50
27540;DHT22;15906;52.046;4.724;2023-02-28T14:10:07;7.80;97.10
27540;DHT22;15906;52.046;4.724;2023-02-28T14:15:50;7.80;96.70
27540;DHT22;15906;52.046;4.724;2023-02-28T14:18:33;7.60;96.10
27540;DHT22;15906;52.046;4.724;2023-02-28T14:26:59;7.40;96.30
27540;DHT22;15906;52.046;4.724;2023-02-28T14:29:42;7.30;96.30
27540;DHT22;15906;52.046;4.724;2023-02-28T14:34:59;7.10;97.60
27540;DHT22;15906;52.046;4.724;2023-02-28T14:37:30;7.10;97.00
27540;DHT22;15906;52.046;4.724;2023-02-28T14:39:59;6.90;96.60
27540;DHT22;15906;52.046;4.724;2023-02-28T14:42:34;6.90;95.20
27540;DHT22;15906;52.046;4.724;2023-02-28T14:45:01;6.90;96.30
27540;DHT22;15906;52.046;4.724;2023-02-28T14:47:34;6.80;97.20
27540;DHT22;15906;52.046;4.724;2023-02-28T14:50:02;6.70;97.20
27540;DHT22;15906;52.046;4.724;2023-02-28T14:52:31;6.90;96.60
27540;DHT22;15906;52.046;4.724;2023-02-28T14:55:01;6.90;95.20
27540;DHT22;15906;52.046;4.724;2023-02-28T14:57:33;6.80;95.40
27540;DHT22;15906;52.046;4.724;2023-02-28T15:00:16;6.80;96.00
27540;DHT22;15906;52.046;4.724;2023-02-28T15:02:45;6.80;96.60
27540;DHT22;15906;52.046;4.724;2023-02-28T15:07:42;6.80;96.60
27540;DHT22;15906;52.046;4.724;2023-02-28T15:10:25;6.70;96.60
27540;DHT22;15906;52.046;4.724;2023-02-28T15:12:59;6.70;96.80
27540;DHT22;15906;52.046;4.724;2023-02-28T15:17:56;6.70;97.20
27540;DHT22;15906;52.046;4.724;2023-02-28T15:20:23;6.80;96.90
27540;DHT22;15906;52.046;4.724;2023-02-28T15:22:50;6.60;97.40
27540;DHT22;15906;52.046;4.724;2023-02-28T15:25:20;6.60;97.40
27540;DHT22;15906;52.046;4.724;2023-02-28T15:27:50;6.60;97.50
27540;DHT22;15906;52.046;4.724;2023-02-28T15:30:20;6.50;97.50
27540;DHT22;15906;52.046;4.724;2023-02-28T15:35:32;6.50;99.90
27540;DHT22;15906;52.046;4.724;2023-02-28T15:38:00;6.40;99.90
27540;DHT22;15906;52.046;4.724;2023-02-28T15:40:27;6.40;99.90
27540;DHT22;15906;52.046;4.724;2023-02-28T15:43:18;6.40;99.90
27540;DHT22;15906;52.046;4.724;2023-02-28T15:45:50;6.40;99.90
27540;DHT22;15906;52.046;4.724;2023-02-28T15:48:23;6.40;99.90
27540;DHT22;15906;52.046;4.724;2023-02-28T15:50:58;6.40;99.90
27540;DHT22;15906;52.046;4.724;2023-02-28T15:53:32;6.50;99.90
27540;DHT22;15906;52.046;4.724;2023-02-28T15:56:06;6.40;99.90
27540;DHT22;15906;52.046;4.724;2023-02-28T15:58:34;6.50;99.90
27540;DHT22;15906;52.046;4.724;2023-02-28T16:01:05;6.50;99.90
27540;DHT22;15906;52.046;4.724;2023-02-28T16:03:40;6.50;99.90
27540;DHT22;15906;52.046;4.724;2023-02-28T16:06:25;6.50;99.90
27540;DHT22;15906;52.046;4.724;2023-02-28T16:08:52;6.40;99.90
27540;DHT22;15906;52.046;4.724;2023-02-28T16:11:19;6.40;99.90
27540;DHT22;15906;52.046;4.724;2023-02-28T16:13:45;6.30;99.90
27540;DHT22;15906;52.046;4.724;2023-02-28T16:16:18;6.20;99.90
27540;DHT22;15906;52.046;4.724;2023-02-28T16:18:45;6.00;99.90
27540;DHT22;15906;52.046;4.724;2023-02-28T16:21:11;5.90;99.90
27540;DHT22;15906;52.046;4.724;2023-02-28T16:23:36;5.90;99.90
27540;DHT22;15906;52.046;4.724;2023-02-28T16:26:03;5.90;99.90
27540;DHT22;15906;52.046;4.724;2023-02-28T16:28:31;5.80;99.90
27540;DHT22;15906;52.046;4.724;2023-02-28T16:30:59;5.70;99.90
27540;DHT22;15906;52.046;4.724;2023-02-28T16:33:25;5.70;99.90
27540;DHT22;15906;52.046;4.724;2023-02-28T16:35:52;5.70;99.90
27540;DHT22;15906;52.046;4.724;2023-02-28T16:38:17;5.70;99.90
27540;DHT22;15906;52.046;4.724;2023-02-28T16:40:44;5.50;99.90
27540;DHT22;15906;52.046;4.724;2023-02-28T16:43:16;5.60;99.90
27540;DHT22;15906;52.046;4.724;2023-02-28T16:45:42;5.60;99.90
27540;DHT22;15906;52.046;4.724;2023-02-28T16:48:12;5.50;99.90
27540;DHT22;15906;52.046;4.724;2023-02-28T16:50:38;5.50;99.90
27540;DHT22;15906;52.046;4.724;2023-02-28T16:53:04;5.40;99.90
27540;DHT22;15906;52.046;4.724;2023-02-28T16:55:29;5.30;99.90
27540;DHT22;15906;52.046;4.724;2023-02-28T16:57:57;5.30;99.90
27540;DHT22;15906;52.046;4.724;2023-02-28T17:00:24;5.20;99.90
27540;DHT22;15906;52.046;4.724;2023-02-28T17:02:50;5.20;99.90
27540;DHT22;15906;52.046;4.724;2023-02-28T17:05:16;5.10;99.90
27540;DHT22;15906;52.046;4.724;2023-02-28T17:07:44;5.10;99.90
27540;DHT22;15906;52.046;4.724;2023-02-28T17:10:22;5.00;99.90
27540;DHT22;15906;52.046;4.724;2023-02-28T17:12:48;5.10;99.90
27540;DHT22;15906;52.046;4.724;2023-02-28T17:15:15;5.00;99.90
27540;DHT22;15906;52.046;4.724;2023-02-28T17:17:42;4.80;99.90
27540;DHT22;15906;52.046;4.724;2023-02-28T17:20:16;4.80;99.90
27540;DHT22;15906;52.046;4.724;2023-02-28T17:22:42;4.80;99.90
27540;DHT22;15906;52.046;4.724;2023-02-28T17:25:09;4.70;99.90
27540;DHT22;15906;52.046;4.724;2023-02-28T17:27:35;4.60;99.90
27540;DHT22;15906;52.046;4.724;2023-02-28T17:30:01;4.60;99.90
27540;DHT22;15906;52.046;4.724;2023-02-28T17:32:27;4.60;99.90
27540;DHT22;15906;52.046;4.724;2023-02-28T17:34:53;4.50;99.90
27540;DHT22;15906;52.046;4.724;2023-02-28T17:37:19;4.50;99.90
27540;DHT22;15906;52.046;4.724;2023-02-28T17:39:44;4.40;99.90
27540;DHT22;15906;52.046;4.724;2023-02-28T17:42:10;4.40;99.90
27540;DHT22;15906;52.046;4.724;2023-02-28T17:44:36;4.40;99.90
27540;DHT22;15906;52.046;4.724;2023-02-28T17:47:03;4.40;99.90
27540;DHT22;15906;52.046;4.724;2023-02-28T17:49:28;4.30;99.90
27540;DHT22;15906;52.046;4.724;2023-02-28T17:51:54;4.30;99.90
27540;DHT22;15906;52.046;4.724;2023-02-28T17:54:19;4.40;99.90
27540;DHT22;15906;52.046;4.724;2023-02-28T17:56:45;4.30;99.90
27540;DHT22;15906;52.046;4.724;2023-02-28T17:59:12;4.20;99.90
27540;DHT22;15906;52.046;4.724;2023-02-28T18:01:38;4.20;99.90
27540;DHT22;15906;52.046;4.724;2023-02-28T18:04:04;4.20;99.90
27540;DHT22;15906;52.046;4.724;2023-02-28T18:06:38;4.10;99.90
27540;DHT22;15906;52.046;4.724;2023-02-28T18:09:17;4.00;99.90
27540;DHT22;15906;52.046;4.724;2023-02-28T18:11:43;3.90;99.90
27540;DHT22;15906;52.046;4.724;2023-02-28T18:14:14;4.00;99.90
27540;DHT22;15906;52.046;4.724;2023-02-28T18:16:41;4.00;99.90
27540;DHT22;15906;52.046;4.724;2023-02-28T18:19:06;4.00;99.90
27540;DHT22;15906;52.046;4.724;2023-02-28T18:21:34;4.00;99.90
27540;DHT22;15906;52.046;4.724;2023-02-28T18:24:00;3.90;99.90